Time;durP1;ratioP1;P1;durP2;ratioP2;P2;SDS_P1;SDS_P2;PMS_P1;PMS_P2;Temp;Humidity;BMP_temperature;BMP_pressure;BME280_temperature;BME280_humidity;BME280_pressure;Samples;Min_cycle;Max_cycle;Signal;HPM_P1;HPM_P2
2021/01/16 00:07:32;;;;;;;1.37;1.27;;;6.30;99.90;;;;;;20578405;28;20506;-77
2021/01/16 00:17:34;;;;;;;0.70;0.70;;;6.60;99.90;;;;;;20610079;28;20558;-76
2021/01/16 00:27:38;;;;;;;3.13;1.93;;;6.60;99.90;;;;;;20627541;28;20905;-80
2021/01/16 00:37:42;;;;;;;0.77;0.77;;;6.80;99.90;;;;;;20606470;28;20195;-79
2021/01/16 00:47:46;;;;;;;0.40;0.40;;;7.00;99.90;;;;;;20633597;28;20309;-80
2021/01/16 00:57:49;;;;;;;2.97;2.20;;;6.70;99.90;;;;;;20704855;28;20349;-78
2021/01/16 01:07:53;;;;;;;2.10;1.57;;;6.80;99.90;;;;;;20705515;28;20227;-79
2021/01/16 01:17:58;;;;;;;5.07;1.37;;;6.70;99.90;;;;;;20704101;28;20203;-78
2021/01/16 01:28:02;;;;;;;1.37;1.27;;;6.60;99.90;;;;;;20703760;28;20293;-77
2021/01/16 01:38:05;;;;;;;2.17;1.67;;;6.70;99.90;;;;;;20639874;28;20326;-77
2021/01/16 01:48:10;;;;;;;2.00;1.90;;;6.60;99.90;;;;;;20632436;28;20689;-80
2021/01/16 01:58:15;;;;;;;1.53;1.43;;;6.60;99.90;;;;;;20680908;28;20706;-79
2021/01/16 02:08:18;;;;;;;6.20;1.67;;;6.60;99.90;;;;;;20702610;28;20277;-79
2021/01/16 02:18:27;;;;;;;2.47;1.23;;;6.50;99.90;;;;;;20678346;28;20302;-79
2021/01/16 02:28:35;;;;;;;4.53;1.00;;;6.20;99.90;;;;;;20698690;28;20307;-80
2021/01/16 02:38:50;;;;;;;1.37;1.27;;;6.10;99.90;;;;;;20572454;28;20545;-79
2021/01/16 02:49:11;;;;;;;0.93;0.77;;;5.90;99.90;;;;;;20551792;28;20620;-78
2021/01/16 02:59:14;;;;;;;3.00;0.53;;;5.90;99.90;;;;;;20697409;28;20187;-77
2021/01/16 03:09:19;;;;;;;2.10;0.90;;;6.20;99.90;;;;;;20695547;28;20763;-81
2021/01/16 03:19:26;;;;;;;0.20;0.10;;;6.30;99.90;;;;;;20693419;28;20304;-77
2021/01/16 03:29:30;;;;;;;0.57;0.43;;;6.50;99.90;;;;;;20692701;28;20791;-76
2021/01/16 03:39:33;;;;;;;0.67;0.57;;;6.50;99.90;;;;;;20604824;28;20290;-77
2021/01/16 03:49:36;;;;;;;1.20;0.90;;;6.60;99.90;;;;;;20634775;28;20222;-74
2021/01/16 03:59:39;;;;;;;1.53;1.20;;;6.40;99.90;;;;;;20705647;28;20292;-81
2021/01/16 04:09:44;;;;;;;0.40;0.40;;;6.30;99.90;;;;;;20691555;28;20223;-77
2021/01/16 04:19:46;;;;;;;0.33;0.33;;;6.20;99.90;;;;;;20708831;28;20317;-78
2021/01/16 04:29:50;;;;;;;1.07;0.93;;;6.10;99.90;;;;;;20684461;28;20212;-77
2021/01/16 04:39:54;;;;;;;0.30;0.30;;;6.00;99.90;;;;;;20584360;28;20200;-80
2021/01/16 04:50:00;;;;;;;1.93;0.83;;;6.00;99.90;;;;;;20650340;28;20310;-77
2021/01/16 05:00:06;;;;;;;0.70;0.70;;;5.90;99.90;;;;;;20706864;28;20195;-78
2021/01/16 05:10:10;;;;;;;1.60;0.97;;;5.80;99.90;;;;;;20629875;28;20238;-77
2021/01/16 05:20:13;;;;;;;0.87;0.70;;;5.70;99.90;;;;;;20623837;28;20394;-72
2021/01/16 05:30:17;;;;;;;0.87;0.87;;;5.60;99.90;;;;;;20617922;28;20228;-73
2021/01/16 05:40:20;;;;;;;1.77;1.17;;;5.60;99.90;;;;;;20541040;28;20208;-73
2021/01/16 05:50:28;;;;;;;1.17;1.17;;;5.60;99.90;;;;;;20577370;28;20284;-72
2021/01/16 06:00:35;;;;;;;2.80;0.77;;;5.60;99.90;;;;;;20700769;28;20699;-77
2021/01/16 06:10:38;;;;;;;1.47;1.27;;;5.70;99.90;;;;;;20699435;28;20242;-76
2021/01/16 06:20:47;;;;;;;1.47;1.37;;;5.70;99.90;;;;;;20699162;28;20309;-72
2021/01/16 06:30:56;;;;;;;1.20;1.10;;;5.70;99.90;;;;;;20699047;28;20253;-73
2021/01/16 06:41:14;;;;;;;1.23;0.83;;;5.60;99.90;;;;;;20533848;28;20219;-73
2021/01/16 06:51:24;;;;;;;4.57;1.40;;;5.80;99.90;;;;;;20604367;28;20690;-72
2021/01/16 07:01:30;;;;;;;0.77;0.77;;;5.40;99.90;;;;;;20614014;28;20273;-75
2021/01/16 07:11:43;;;;;;;3.10;1.23;;;5.60;99.90;;;;;;20613982;28;20754;-76
2021/01/16 07:21:46;;;;;;;1.33;1.23;;;5.70;99.90;;;;;;20596845;28;20231;-77
2021/01/16 07:31:52;;;;;;;2.43;1.70;;;5.80;99.90;;;;;;20623723;28;20621;-73
2021/01/16 07:42:03;;;;;;;0.47;0.43;;;5.70;99.90;;;;;;20618589;28;20191;-75
2021/01/16 07:52:07;;;;;;;0.90;0.90;;;5.80;99.90;;;;;;20680321;28;20224;-76
2021/01/16 08:02:28;;;;;;;0.77;0.60;;;5.70;99.90;;;;;;20719381;28;20273;-73
2021/01/16 08:12:35;;;;;;;1.57;0.70;;;6.00;99.90;;;;;;20679156;28;20306;-72
2021/01/16 08:22:40;;;;;;;1.13;1.03;;;6.10;99.90;;;;;;20638199;28;20726;-73
2021/01/16 08:32:59;;;;;;;1.90;0.90;;;6.30;99.90;;;;;;20636424;28;20297;-72
2021/01/16 08:43:02;;;;;;;1.60;1.37;;;6.70;99.90;;;;;;20631506;28;20290;-71
2021/01/16 08:53:21;;;;;;;2.00;1.23;;;7.20;99.90;;;;;;20655263;28;20218;-73
2021/01/16 09:03:25;;;;;;;1.20;1.10;;;7.50;99.90;;;;;;20703501;28;20231;-71
2021/01/16 09:13:32;;;;;;;0.80;0.80;;;7.80;99.90;;;;;;20703719;28;20703;-72
2021/01/16 09:23:38;;;;;;;1.20;0.93;;;7.90;99.90;;;;;;20669238;28;20230;-72
2021/01/16 09:33:44;;;;;;;0.47;0.47;;;8.40;99.90;;;;;;20700995;28;20237;-73
2021/01/16 09:43:47;;;;;;;0.73;0.73;;;8.80;99.90;;;;;;20699759;28;20325;-72
2021/01/16 09:53:51;;;;;;;0.50;0.50;;;9.20;99.90;;;;;;20622158;28;20706;-72
2021/01/16 10:03:54;;;;;;;2.13;1.57;;;9.40;99.90;;;;;;20617798;28;20285;-74
2021/01/16 10:14:12;;;;;;;2.10;1.50;;;9.80;99.90;;;;;;20613766;28;20680;-73
2021/01/16 10:24:19;;;;;;;0.20;0.20;;;10.40;99.90;;;;;;20612723;28;20223;-73
2021/01/16 10:34:30;;;;;;;0.40;0.40;;;11.00;99.90;;;;;;20611041;28;20409;-73
2021/01/16 10:44:39;;;;;;;0.30;0.30;;;11.60;99.90;;;;;;20593377;28;20195;-74
2021/01/16 10:54:57;;;;;;;3.80;0.87;;;12.00;99.90;;;;;;20610518;28;20358;-73
2021/01/16 11:05:18;;;;;;;1.87;0.57;;;12.90;99.90;;;;;;20591309;28;20195;-74
2021/01/16 11:15:26;;;;;;;0.20;0.10;;;12.60;99.90;;;;;;20608283;28;20314;-75
2021/01/16 11:25:41;;;;;;;1.40;0.73;;;13.40;99.90;;;;;;20609272;28;20596;-74
2021/01/16 11:35:45;;;;;;;1.17;0.97;;;14.20;99.90;;;;;;20612805;28;20465;-75
2021/01/16 11:45:47;;;;;;;0.73;0.73;;;13.70;99.90;;;;;;20609856;28;20230;-73
2021/01/16 11:55:51;;;;;;;11.57;1.30;;;13.80;99.90;;;;;;20609629;28;20327;-74
2021/01/16 12:05:54;;;;;;;1.03;1.03;;;14.30;99.90;;;;;;20607772;28;20620;-77
2021/01/16 12:15:58;;;;;;;0.40;0.30;;;14.50;99.90;;;;;;20611350;28;20777;-75
2021/01/16 12:26:06;;;;;;;11.27;0.90;;;15.00;99.90;;;;;;20621956;28;20739;-76
2021/01/16 12:36:11;;;;;;;0.20;0.10;;;15.60;99.90;;;;;;20625857;28;20742;-72
2021/01/16 12:46:14;;;;;;;4.17;0.30;;;15.50;99.90;;;;;;20622437;28;20191;-74
2021/01/16 12:56:19;;;;;;;0.20;0.10;;;15.90;99.90;;;;;;20699336;28;20281;-76
2021/01/16 13:06:22;;;;;;;2.00;0.37;;;15.70;99.90;;;;;;20702112;28;20199;-76
2021/01/16 13:16:29;;;;;;;0.20;0.10;;;16.50;99.90;;;;;;20703728;28;20234;-78
2021/01/16 13:26:40;;;;;;;0.57;0.40;;;17.20;99.90;;;;;;20682858;28;20707;-78
2021/01/16 13:36:45;;;;;;;1.53;0.50;;;17.10;99.90;;;;;;20700467;28;20719;-75
2021/01/16 13:46:49;;;;;;;0.77;0.77;;;17.00;99.90;;;;;;20702970;28;20514;-78
2021/01/16 13:56:53;;;;;;;0.57;0.30;;;17.40;99.90;;;;;;20600873;28;20235;-77
2021/01/16 14:06:57;;;;;;;0.60;0.60;;;17.50;99.90;;;;;;20609748;28;20262;-75
2021/01/16 14:17:16;;;;;;;0.67;0.40;;;17.30;99.90;;;;;;20616397;28;20231;-81
2021/01/16 14:27:20;;;;;;;1.37;0.73;;;17.70;99.90;;;;;;20600335;28;20227;-81
2021/01/16 14:37:28;;;;;;;0.30;0.27;;;18.10;99.90;;;;;;20617898;28;20984;-82
2021/01/16 14:47:32;;;;;;;0.30;0.30;;;18.10;99.90;;;;;;20592288;28;20656;-84
2021/01/16 14:57:39;;;;;;;1.30;0.90;;;17.50;99.90;;;;;;20614108;28;20242;-80
2021/01/16 15:07:42;;;;;;;0.80;0.80;;;15.80;99.90;;;;;;20610332;28;20199;-78
2021/01/16 15:17:56;;;;;;;0.83;0.70;;;14.90;99.90;;;;;;20613843;28;20231;-82
2021/01/16 15:27:59;;;;;;;1.10;0.57;;;14.30;99.90;;;;;;20612722;28;20191;-79
2021/01/16 15:38:04;;;;;;;0.77;0.60;;;13.80;99.90;;;;;;20589149;28;20235;-78
2021/01/16 15:48:12;;;;;;;1.17;1.07;;;13.20;99.90;;;;;;20602997;28;20234;-78
2021/01/16 15:58:17;;;;;;;1.90;0.53;;;13.40;99.90;;;;;;20706953;28;20793;-78
2021/01/16 16:08:22;;;;;;;2.00;1.70;;;13.20;99.90;;;;;;20704556;28;20293;-77
2021/01/16 16:18:30;;;;;;;0.60;0.60;;;12.60;99.90;;;;;;20705938;28;20384;-76
2021/01/16 16:28:35;;;;;;;3.20;0.77;;;12.30;99.90;;;;;;20705123;28;20272;-78
2021/01/16 16:38:41;;;;;;;0.77;0.77;;;12.10;99.90;;;;;;20686587;28;20362;-78
2021/01/16 16:48:45;;;;;;;3.40;1.30;;;11.70;99.90;;;;;;20674663;28;20198;-78
2021/01/16 16:58:49;;;;;;;5.60;1.93;;;11.60;99.90;;;;;;20701904;28;20637;-79
2021/01/16 17:08:51;;;;;;;3.00;1.50;;;11.40;99.90;;;;;;20641423;28;20243;-81
2021/01/16 17:18:56;;;;;;;2.10;0.93;;;11.40;99.90;;;;;;20542138;28;20766;-80
2021/01/16 17:28:58;;;;;;;1.37;1.27;;;11.20;99.90;;;;;;20539977;28;20588;-77
2021/01/16 17:39:03;;;;;;;1.03;0.93;;;11.00;99.90;;;;;;20541075;28;20239;-80
2021/01/16 17:49:08;;;;;;;1.90;1.50;;;10.90;99.90;;;;;;20557629;28;20191;-72
2021/01/16 17:59:11;;;;;;;3.47;1.20;;;10.90;99.90;;;;;;20697661;28;20320;-75
2021/01/16 18:09:17;;;;;;;1.40;0.90;;;10.70;99.90;;;;;;20615641;28;20199;-74
2021/01/16 18:19:21;;;;;;;1.90;1.00;;;10.60;99.90;;;;;;20597418;28;20330;-75
2021/01/16 18:29:24;;;;;;;1.87;1.10;;;10.20;99.90;;;;;;20613473;28;20209;-73
2021/01/16 18:39:28;;;;;;;0.30;0.30;;;10.10;99.90;;;;;;20612760;28;20230;-74
2021/01/16 18:49:31;;;;;;;1.07;0.97;;;9.70;99.90;;;;;;20638924;28;20477;-75
2021/01/16 18:59:35;;;;;;;3.63;1.47;;;9.80;99.90;;;;;;20696984;28;20459;-72
2021/01/16 19:09:47;;;;;;;0.37;0.37;;;9.30;99.90;;;;;;20695385;28;20202;-76
2021/01/16 19:19:51;;;;;;;0.73;0.67;;;9.30;99.90;;;;;;20675510;28;20226;-75
2021/01/16 19:29:54;;;;;;;0.97;0.63;;;9.50;99.90;;;;;;20674615;28;20203;-75
2021/01/16 19:39:58;;;;;;;1.30;1.20;;;9.40;99.90;;;;;;20609874;28;20269;-77
2021/01/16 19:50:01;;;;;;;2.33;1.30;;;9.30;99.90;;;;;;20612163;28;20217;-74
2021/01/16 20:00:07;;;;;;;0.90;0.70;;;9.20;99.90;;;;;;20609194;28;20215;-75
2021/01/16 20:10:10;;;;;;;2.17;1.20;;;8.90;99.90;;;;;;20596696;28;20204;-75
2021/01/16 20:20:15;;;;;;;1.57;1.00;;;8.90;99.90;;;;;;20591178;28;20223;-75
2021/01/16 20:30:18;;;;;;;0.40;0.40;;;8.60;99.90;;;;;;20581797;28;20199;-75
2021/01/16 20:40:25;;;;;;;2.03;1.87;;;8.90;99.90;;;;;;20615598;28;20559;-75
2021/01/16 20:50:27;;;;;;;2.47;1.77;;;8.80;99.90;;;;;;20653458;28;20317;-76
2021/01/16 21:00:31;;;;;;;1.60;0.63;;;8.60;99.90;;;;;;20633737;28;20228;-74
2021/01/16 21:10:34;;;;;;;1.23;1.13;;;8.50;99.90;;;;;;20605425;28;20294;-73
2021/01/16 21:20:38;;;;;;;2.83;2.60;;;8.60;99.90;;;;;;20604612;28;20314;-74
2021/01/16 21:30:41;;;;;;;3.53;1.53;;;8.30;99.90;;;;;;20620262;28;20212;-76
2021/01/16 21:40:45;;;;;;;1.57;1.30;;;8.20;99.90;;;;;;20619670;28;20223;-75
2021/01/16 21:50:48;;;;;;;2.00;1.20;;;7.90;99.90;;;;;;20618673;28;20239;-75
2021/01/16 22:00:52;;;;;;;3.27;2.97;;;7.80;99.90;;;;;;20617113;28;20230;-73
2021/01/16 22:10:55;;;;;;;1.17;0.77;;;7.70;99.90;;;;;;20600776;28;20648;-75
2021/01/16 22:20:59;;;;;;;2.20;2.03;;;7.40;99.90;;;;;;20615948;28;20727;-70
2021/01/16 22:31:02;;;;;;;6.10;1.17;;;7.30;99.90;;;;;;20618666;28;20282;-82
2021/01/16 22:41:07;;;;;;;1.23;1.13;;;7.00;99.90;;;;;;20615948;28;20607;-80
2021/01/16 22:51:10;;;;;;;1.13;0.50;;;6.80;99.90;;;;;;20633433;28;20196;-80
2021/01/16 23:01:15;;;;;;;1.40;1.13;;;6.90;99.90;;;;;;20613064;28;20219;-78
2021/01/16 23:11:18;;;;;;;0.53;0.53;;;6.70;99.90;;;;;;20614448;28;20207;-80
2021/01/16 23:21:22;;;;;;;0.83;0.83;;;7.10;99.90;;;;;;20611071;28;20247;-79
2021/01/16 23:31:25;;;;;;;0.50;0.50;;;7.50;99.90;;;;;;20610740;28;20651;-79
2021/01/16 23:41:28;;;;;;;0.70;0.70;;;7.50;99.90;;;;;;20609169;28;20220;-79
2021/01/16 23:51:31;;;;;;;3.87;0.80;;;7.30;99.90;;;;;;20612142;28;20202;-78
